sensor_id;sensor_type;location;lat;lon;timestamp;P1;durP1;ratioP1;P2;durP2;ratioP2
58621;SDS011;44389;51.578;5.456;2023-02-13T00:01:05;131.10;;;60.80;;
58621;SDS011;44389;51.578;5.456;2023-02-13T00:03:31;130.95;;;63.53;;
58621;SDS011;44389;51.578;5.456;2023-02-13T00:05:56;134.65;;;63.83;;
58621;SDS011;44389;51.578;5.456;2023-02-13T00:08:21;139.15;;;62.10;;
58621;SDS011;44389;51.578;5.456;2023-02-13T00:10:47;134.90;;;60.70;;
58621;SDS011;44389;51.578;5.456;2023-02-13T00:13:13;141.52;;;61.47;;
58621;SDS011;44389;51.578;5.456;2023-02-13T00:15:38;133.02;;;61.60;;
58621;SDS011;44389;51.578;5.456;2023-02-13T00:18:04;133.93;;;61.58;;
58621;SDS011;44389;51.578;5.456;2023-02-13T00:20:29;144.02;;;66.85;;
58621;SDS011;44389;51.578;5.456;2023-02-13T00:22:55;131.70;;;61.72;;
58621;SDS011;44389;51.578;5.456;2023-02-13T00:25:21;134.77;;;62.07;;
58621;SDS011;44389;51.578;5.456;2023-02-13T00:27:47;143.05;;;62.60;;
58621;SDS011;44389;51.578;5.456;2023-02-13T00:30:15;137.07;;;64.65;;
58621;SDS011;44389;51.578;5.456;2023-02-13T00:32:40;136.05;;;61.97;;
58621;SDS011;44389;51.578;5.456;2023-02-13T00:35:05;147.20;;;65.00;;
58621;SDS011;44389;51.578;5.456;2023-02-13T00:37:32;141.27;;;64.00;;
58621;SDS011;44389;51.578;5.456;2023-02-13T00:39:57;143.13;;;65.18;;
58621;SDS011;44389;51.578;5.456;2023-02-13T00:42:23;140.93;;;63.65;;
58621;SDS011;44389;51.578;5.456;2023-02-13T00:44:50;143.07;;;65.78;;
58621;SDS011;44389;51.578;5.456;2023-02-13T00:47:16;141.55;;;64.13;;
58621;SDS011;44389;51.578;5.456;2023-02-13T00:49:41;136.18;;;64.25;;
58621;SDS011;44389;51.578;5.456;2023-02-13T00:52:06;137.95;;;62.20;;
58621;SDS011;44389;51.578;5.456;2023-02-13T00:54:32;141.80;;;68.40;;
58621;SDS011;44389;51.578;5.456;2023-02-13T00:56:57;140.65;;;65.55;;
58621;SDS011;44389;51.578;5.456;2023-02-13T00:59:22;143.20;;;65.30;;
58621;SDS011;44389;51.578;5.456;2023-02-13T01:01:47;136.48;;;65.97;;
58621;SDS011;44389;51.578;5.456;2023-02-13T01:04:13;139.85;;;65.20;;
58621;SDS011;44389;51.578;5.456;2023-02-13T01:06:38;139.10;;;63.92;;
58621;SDS011;44389;51.578;5.456;2023-02-13T01:09:03;144.85;;;67.65;;
58621;SDS011;44389;51.578;5.456;2023-02-13T01:11:29;145.13;;;67.80;;
58621;SDS011;44389;51.578;5.456;2023-02-13T01:13:54;152.15;;;67.85;;
58621;SDS011;44389;51.578;5.456;2023-02-13T01:16:19;143.75;;;67.43;;
58621;SDS011;44389;51.578;5.456;2023-02-13T01:18:45;147.10;;;68.85;;
58621;SDS011;44389;51.578;5.456;2023-02-13T01:21:17;153.40;;;69.80;;
58621;SDS011;44389;51.578;5.456;2023-02-13T01:23:44;149.43;;;67.95;;
58621;SDS011;44389;51.578;5.456;2023-02-13T01:26:10;146.18;;;68.15;;
58621;SDS011;44389;51.578;5.456;2023-02-13T01:28:41;151.90;;;69.82;;
58621;SDS011;44389;51.578;5.456;2023-02-13T01:31:06;145.55;;;67.85;;
58621;SDS011;44389;51.578;5.456;2023-02-13T01:33:32;152.82;;;72.32;;
58621;SDS011;44389;51.578;5.456;2023-02-13T01:35:58;158.13;;;70.90;;
58621;SDS011;44389;51.578;5.456;2023-02-13T01:38:24;149.57;;;69.05;;
58621;SDS011;44389;51.578;5.456;2023-02-13T01:40:50;147.07;;;70.85;;
58621;SDS011;44389;51.578;5.456;2023-02-13T01:43:17;153.70;;;69.68;;
58621;SDS011;44389;51.578;5.456;2023-02-13T01:45:44;157.00;;;68.80;;
58621;SDS011;44389;51.578;5.456;2023-02-13T01:48:17;156.27;;;70.97;;
58621;SDS011;44389;51.578;5.456;2023-02-13T01:50:49;152.45;;;72.32;;
58621;SDS011;44389;51.578;5.456;2023-02-13T01:55:55;157.10;;;70.20;;
58621;SDS011;44389;51.578;5.456;2023-02-13T01:58:25;151.20;;;71.28;;
58621;SDS011;44389;51.578;5.456;2023-02-13T02:00:54;150.48;;;69.28;;
58621;SDS011;44389;51.578;5.456;2023-02-13T02:03:34;156.20;;;71.68;;
58621;SDS011;44389;51.578;5.456;2023-02-13T02:06:03;161.30;;;70.65;;
58621;SDS011;44389;51.578;5.456;2023-02-13T02:08:31;161.73;;;73.80;;
58621;SDS011;44389;51.578;5.456;2023-02-13T02:10:59;162.02;;;72.72;;
58621;SDS011;44389;51.578;5.456;2023-02-13T02:13:29;159.65;;;74.03;;
58621;SDS011;44389;51.578;5.456;2023-02-13T02:15:54;154.15;;;73.65;;
58621;SDS011;44389;51.578;5.456;2023-02-13T02:18:21;157.65;;;72.40;;
58621;SDS011;44389;51.578;5.456;2023-02-13T02:26:42;160.55;;;74.45;;
58621;SDS011;44389;51.578;5.456;2023-02-13T02:35:30;161.52;;;73.90;;
58621;SDS011;44389;51.578;5.456;2023-02-13T02:49:11;156.45;;;72.22;;
58621;SDS011;44389;51.578;5.456;2023-02-13T02:54:35;152.88;;;74.30;;
58621;SDS011;44389;51.578;5.456;2023-02-13T02:57:26;160.30;;;73.90;;
58621;SDS011;44389;51.578;5.456;2023-02-13T03:00:15;160.30;;;73.20;;
58621;SDS011;44389;51.578;5.456;2023-02-13T03:03:02;159.90;;;76.95;;
58621;SDS011;44389;51.578;5.456;2023-02-13T03:05:52;157.65;;;72.90;;
58621;SDS011;44389;51.578;5.456;2023-02-13T03:08:38;163.25;;;73.53;;
58621;SDS011;44389;51.578;5.456;2023-02-13T03:11:25;169.70;;;76.63;;
58621;SDS011;44389;51.578;5.456;2023-02-13T03:14:09;143.02;;;70.05;;
58621;SDS011;44389;51.578;5.456;2023-02-13T03:16:38;147.27;;;70.20;;
58621;SDS011;44389;51.578;5.456;2023-02-13T03:25:35;173.90;;;77.15;;
58621;SDS011;44389;51.578;5.456;2023-02-13T03:28:12;157.57;;;72.47;;
58621;SDS011;44389;51.578;5.456;2023-02-13T03:36:32;150.18;;;68.43;;
58621;SDS011;44389;51.578;5.456;2023-02-13T03:42:01;150.35;;;71.25;;
58621;SDS011;44389;51.578;5.456;2023-02-13T03:47:03;160.20;;;73.32;;
58621;SDS011;44389;51.578;5.456;2023-02-13T03:49:35;183.82;;;81.10;;
58621;SDS011;44389;51.578;5.456;2023-02-13T03:52:25;195.27;;;87.50;;
58621;SDS011;44389;51.578;5.456;2023-02-13T03:54:59;203.85;;;87.15;;
58621;SDS011;44389;51.578;5.456;2023-02-13T03:57:49;200.18;;;87.80;;
58621;SDS011;44389;51.578;5.456;2023-02-13T04:00:37;195.60;;;85.20;;
58621;SDS011;44389;51.578;5.456;2023-02-13T04:03:09;204.90;;;87.38;;
58621;SDS011;44389;51.578;5.456;2023-02-13T04:05:45;180.93;;;79.90;;
58621;SDS011;44389;51.578;5.456;2023-02-13T04:08:13;182.82;;;79.60;;
58621;SDS011;44389;51.578;5.456;2023-02-13T04:10:43;195.27;;;83.10;;
58621;SDS011;44389;51.578;5.456;2023-02-13T04:13:17;201.57;;;86.97;;
58621;SDS011;44389;51.578;5.456;2023-02-13T04:15:53;197.30;;;85.80;;
58621;SDS011;44389;51.578;5.456;2023-02-13T04:18:26;175.45;;;82.13;;
58621;SDS011;44389;51.578;5.456;2023-02-13T04:20:54;167.02;;;76.45;;
58621;SDS011;44389;51.578;5.456;2023-02-13T04:23:19;173.95;;;78.47;;
58621;SDS011;44389;51.578;5.456;2023-02-13T04:25:46;169.60;;;76.88;;
58621;SDS011;44389;51.578;5.456;2023-02-13T04:28:14;169.35;;;75.38;;
58621;SDS011;44389;51.578;5.456;2023-02-13T04:30:39;182.85;;;83.40;;
58621;SDS011;44389;51.578;5.456;2023-02-13T04:33:05;180.73;;;82.55;;
58621;SDS011;44389;51.578;5.456;2023-02-13T04:35:30;181.57;;;80.32;;
58621;SDS011;44389;51.578;5.456;2023-02-13T04:37:55;165.60;;;74.70;;
58621;SDS011;44389;51.578;5.456;2023-02-13T04:40:21;179.32;;;77.65;;
58621;SDS011;44389;51.578;5.456;2023-02-13T04:42:46;183.55;;;80.35;;
58621;SDS011;44389;51.578;5.456;2023-02-13T04:45:13;193.50;;;83.97;;
58621;SDS011;44389;51.578;5.456;2023-02-13T04:47:38;177.82;;;81.28;;
58621;SDS011;44389;51.578;5.456;2023-02-13T04:50:03;169.30;;;73.53;;
58621;SDS011;44389;51.578;5.456;2023-02-13T04:52:29;185.75;;;80.70;;
58621;SDS011;44389;51.578;5.456;2023-02-13T04:54:54;186.85;;;83.03;;
58621;SDS011;44389;51.578;5.456;2023-02-13T04:57:20;196.30;;;84.18;;
58621;SDS011;44389;51.578;5.456;2023-02-13T04:59:45;195.48;;;83.57;;
58621;SDS011;44389;51.578;5.456;2023-02-13T05:02:10;184.65;;;81.47;;
58621;SDS011;44389;51.578;5.456;2023-02-13T05:04:35;209.23;;;87.13;;
58621;SDS011;44389;51.578;5.456;2023-02-13T05:07:01;205.10;;;87.65;;
58621;SDS011;44389;51.578;5.456;2023-02-13T05:09:26;231.02;;;92.10;;
58621;SDS011;44389;51.578;5.456;2023-02-13T05:11:52;212.75;;;89.65;;
58621;SDS011;44389;51.578;5.456;2023-02-13T05:14:18;223.88;;;88.53;;
58621;SDS011;44389;51.578;5.456;2023-02-13T05:16:43;212.75;;;88.95;;
58621;SDS011;44389;51.578;5.456;2023-02-13T05:19:09;192.07;;;83.53;;
58621;SDS011;44389;51.578;5.456;2023-02-13T05:21:34;183.85;;;84.32;;
58621;SDS011;44389;51.578;5.456;2023-02-13T05:24:18;181.05;;;80.80;;
58621;SDS011;44389;51.578;5.456;2023-02-13T05:26:43;190.80;;;83.22;;
58621;SDS011;44389;51.578;5.456;2023-02-13T05:29:09;196.25;;;85.00;;
58621;SDS011;44389;51.578;5.456;2023-02-13T05:31:45;195.10;;;84.00;;
58621;SDS011;44389;51.578;5.456;2023-02-13T05:34:11;210.10;;;91.13;;
58621;SDS011;44389;51.578;5.456;2023-02-13T05:36:36;198.18;;;83.68;;
58621;SDS011;44389;51.578;5.456;2023-02-13T05:39:02;207.13;;;88.05;;
58621;SDS011;44389;51.578;5.456;2023-02-13T05:41:28;208.38;;;86.07;;
58621;SDS011;44389;51.578;5.456;2023-02-13T05:43:53;188.82;;;81.30;;
58621;SDS011;44389;51.578;5.456;2023-02-13T05:46:18;196.93;;;81.43;;
58621;SDS011;44389;51.578;5.456;2023-02-13T05:48:43;187.43;;;81.82;;
58621;SDS011;44389;51.578;5.456;2023-02-13T05:51:09;187.43;;;81.38;;
58621;SDS011;44389;51.578;5.456;2023-02-13T05:53:34;195.48;;;82.28;;
58621;SDS011;44389;51.578;5.456;2023-02-13T05:56:00;204.43;;;82.93;;
58621;SDS011;44389;51.578;5.456;2023-02-13T05:58:26;201.77;;;86.32;;
58621;SDS011;44389;51.578;5.456;2023-02-13T06:00:54;196.00;;;85.07;;
58621;SDS011;44389;51.578;5.456;2023-02-13T06:03:20;226.57;;;93.15;;
58621;SDS011;44389;51.578;5.456;2023-02-13T06:05:46;201.07;;;84.55;;
58621;SDS011;44389;51.578;5.456;2023-02-13T06:08:11;221.00;;;95.00;;
58621;SDS011;44389;51.578;5.456;2023-02-13T06:10:36;197.52;;;85.65;;
58621;SDS011;44389;51.578;5.456;2023-02-13T06:13:02;236.20;;;96.88;;
58621;SDS011;44389;51.578;5.456;2023-02-13T06:15:27;225.80;;;95.80;;
58621;SDS011;44389;51.578;5.456;2023-02-13T06:17:52;223.88;;;95.57;;
58621;SDS011;44389;51.578;5.456;2023-02-13T06:20:18;206.00;;;90.68;;
58621;SDS011;44389;51.578;5.456;2023-02-13T06:22:45;205.38;;;90.95;;
58621;SDS011;44389;51.578;5.456;2023-02-13T06:25:12;209.30;;;87.55;;
58621;SDS011;44389;51.578;5.456;2023-02-13T06:27:37;204.70;;;88.20;;
58621;SDS011;44389;51.578;5.456;2023-02-13T06:30:02;209.13;;;87.85;;
58621;SDS011;44389;51.578;5.456;2023-02-13T06:32:28;183.90;;;81.53;;
58621;SDS011;44389;51.578;5.456;2023-02-13T06:34:53;182.35;;;80.50;;
58621;SDS011;44389;51.578;5.456;2023-02-13T06:37:18;155.63;;;72.43;;
58621;SDS011;44389;51.578;5.456;2023-02-13T06:39:44;174.48;;;78.03;;
58621;SDS011;44389;51.578;5.456;2023-02-13T06:42:09;175.90;;;82.00;;
58621;SDS011;44389;51.578;5.456;2023-02-13T06:44:34;166.93;;;77.63;;
58621;SDS011;44389;51.578;5.456;2023-02-13T06:46:59;177.18;;;79.20;;
58621;SDS011;44389;51.578;5.456;2023-02-13T06:49:25;183.13;;;81.38;;
58621;SDS011;44389;51.578;5.456;2023-02-13T06:51:50;182.77;;;82.80;;
58621;SDS011;44389;51.578;5.456;2023-02-13T06:54:15;176.00;;;75.97;;
58621;SDS011;44389;51.578;5.456;2023-02-13T06:56:41;172.98;;;76.28;;
58621;SDS011;44389;51.578;5.456;2023-02-13T06:59:06;158.82;;;73.88;;
58621;SDS011;44389;51.578;5.456;2023-02-13T07:01:31;170.52;;;72.10;;
58621;SDS011;44389;51.578;5.456;2023-02-13T07:03:57;179.13;;;76.85;;
58621;SDS011;44389;51.578;5.456;2023-02-13T07:06:22;167.95;;;76.07;;
58621;SDS011;44389;51.578;5.456;2023-02-13T07:08:47;192.00;;;82.53;;
58621;SDS011;44389;51.578;5.456;2023-02-13T07:11:16;185.10;;;78.75;;
58621;SDS011;44389;51.578;5.456;2023-02-13T07:13:42;195.45;;;81.25;;
58621;SDS011;44389;51.578;5.456;2023-02-13T07:16:07;234.73;;;96.22;;
58621;SDS011;44389;51.578;5.456;2023-02-13T07:18:33;222.20;;;88.57;;
58621;SDS011;44389;51.578;5.456;2023-02-13T07:20:58;214.48;;;87.72;;
58621;SDS011;44389;51.578;5.456;2023-02-13T07:23:23;215.98;;;92.13;;
58621;SDS011;44389;51.578;5.456;2023-02-13T07:25:49;279.42;;;128.70;;
58621;SDS011;44389;51.578;5.456;2023-02-13T07:28:14;227.32;;;94.55;;
58621;SDS011;44389;51.578;5.456;2023-02-13T07:30:39;171.10;;;83.30;;
58621;SDS011;44389;51.578;5.456;2023-02-13T07:33:04;149.10;;;71.03;;
58621;SDS011;44389;51.578;5.456;2023-02-13T07:35:30;143.50;;;66.10;;
58621;SDS011;44389;51.578;5.456;2023-02-13T07:37:56;103.38;;;52.40;;
58621;SDS011;44389;51.578;5.456;2023-02-13T07:40:21;87.65;;;49.25;;
58621;SDS011;44389;51.578;5.456;2023-02-13T07:42:47;90.13;;;49.08;;
58621;SDS011;44389;51.578;5.456;2023-02-13T07:45:12;145.07;;;66.65;;
58621;SDS011;44389;51.578;5.456;2023-02-13T07:47:40;156.35;;;69.10;;
58621;SDS011;44389;51.578;5.456;2023-02-13T07:50:05;169.23;;;69.97;;
58621;SDS011;44389;51.578;5.456;2023-02-13T07:52:31;131.10;;;64.55;;
58621;SDS011;44389;51.578;5.456;2023-02-13T07:54:57;110.30;;;58.42;;
58621;SDS011;44389;51.578;5.456;2023-02-13T07:57:22;109.20;;;57.70;;
58621;SDS011;44389;51.578;5.456;2023-02-13T07:59:48;105.07;;;54.17;;
58621;SDS011;44389;51.578;5.456;2023-02-13T08:02:13;83.97;;;47.53;;
58621;SDS011;44389;51.578;5.456;2023-02-13T08:04:40;79.32;;;44.88;;
58621;SDS011;44389;51.578;5.456;2023-02-13T08:07:10;89.78;;;44.67;;
58621;SDS011;44389;51.578;5.456;2023-02-13T08:09:35;96.65;;;43.72;;
58621;SDS011;44389;51.578;5.456;2023-02-13T08:12:19;102.93;;;46.10;;
58621;SDS011;44389;51.578;5.456;2023-02-13T08:14:45;83.55;;;46.88;;
58621;SDS011;44389;51.578;5.456;2023-02-13T08:17:11;91.85;;;47.80;;
58621;SDS011;44389;51.578;5.456;2023-02-13T08:19:37;122.03;;;54.13;;
58621;SDS011;44389;51.578;5.456;2023-02-13T08:22:02;123.97;;;59.33;;
58621;SDS011;44389;51.578;5.456;2023-02-13T08:24:28;133.05;;;63.38;;
58621;SDS011;44389;51.578;5.456;2023-02-13T08:26:54;207.05;;;74.40;;
58621;SDS011;44389;51.578;5.456;2023-02-13T08:29:20;163.15;;;75.30;;
58621;SDS011;44389;51.578;5.456;2023-02-13T08:31:45;383.52;;;93.82;;
58621;SDS011;44389;51.578;5.456;2023-02-13T08:34:10;237.20;;;91.43;;
58621;SDS011;44389;51.578;5.456;2023-02-13T08:36:36;242.65;;;97.72;;
58621;SDS011;44389;51.578;5.456;2023-02-13T08:39:01;236.07;;;98.32;;
58621;SDS011;44389;51.578;5.456;2023-02-13T08:41:26;307.48;;;133.35;;
58621;SDS011;44389;51.578;5.456;2023-02-13T08:43:52;309.27;;;120.43;;
58621;SDS011;44389;51.578;5.456;2023-02-13T08:46:18;251.95;;;108.53;;
58621;SDS011;44389;51.578;5.456;2023-02-13T08:48:43;254.15;;;100.10;;
58621;SDS011;44389;51.578;5.456;2023-02-13T08:51:09;246.30;;;101.40;;
58621;SDS011;44389;51.578;5.456;2023-02-13T08:53:36;247.60;;;103.70;;
58621;SDS011;44389;51.578;5.456;2023-02-13T08:56:02;243.93;;;102.68;;
58621;SDS011;44389;51.578;5.456;2023-02-13T08:58:28;257.83;;;110.93;;
58621;SDS011;44389;51.578;5.456;2023-02-13T09:00:54;263.50;;;115.35;;
58621;SDS011;44389;51.578;5.456;2023-02-13T09:03:19;279.63;;;120.45;;
58621;SDS011;44389;51.578;5.456;2023-02-13T09:05:45;295.85;;;128.77;;
58621;SDS011;44389;51.578;5.456;2023-02-13T09:08:11;301.13;;;127.82;;
58621;SDS011;44389;51.578;5.456;2023-02-13T09:10:37;277.50;;;120.43;;
58621;SDS011;44389;51.578;5.456;2023-02-13T09:13:03;266.75;;;116.18;;
58621;SDS011;44389;51.578;5.456;2023-02-13T09:15:29;231.40;;;103.32;;
58621;SDS011;44389;51.578;5.456;2023-02-13T09:17:55;220.38;;;99.22;;
58621;SDS011;44389;51.578;5.456;2023-02-13T09:20:21;201.80;;;95.93;;
58621;SDS011;44389;51.578;5.456;2023-02-13T09:22:46;216.10;;;99.50;;
58621;SDS011;44389;51.578;5.456;2023-02-13T09:25:12;219.88;;;100.07;;
58621;SDS011;44389;51.578;5.456;2023-02-13T09:27:37;198.30;;;94.22;;
58621;SDS011;44389;51.578;5.456;2023-02-13T09:30:06;167.60;;;84.90;;
58621;SDS011;44389;51.578;5.456;2023-02-13T09:32:33;160.45;;;83.97;;
58621;SDS011;44389;51.578;5.456;2023-02-13T09:34:59;149.98;;;78.75;;
58621;SDS011;44389;51.578;5.456;2023-02-13T09:37:24;155.70;;;83.53;;
58621;SDS011;44389;51.578;5.456;2023-02-13T09:39:50;192.27;;;95.30;;
58621;SDS011;44389;51.578;5.456;2023-02-13T09:42:17;168.60;;;91.15;;
58621;SDS011;44389;51.578;5.456;2023-02-13T09:44:48;154.85;;;82.80;;
58621;SDS011;44389;51.578;5.456;2023-02-13T09:54:39;128.90;;;73.05;;
58621;SDS011;44389;51.578;5.456;2023-02-13T10:02:54;102.03;;;59.58;;
58621;SDS011;44389;51.578;5.456;2023-02-13T10:14:01;66.63;;;39.80;;
58621;SDS011;44389;51.578;5.456;2023-02-13T10:16:38;68.80;;;42.97;;
58621;SDS011;44389;51.578;5.456;2023-02-13T10:21:54;61.42;;;38.05;;
58621;SDS011;44389;51.578;5.456;2023-02-13T10:24:30;58.20;;;33.67;;
58621;SDS011;44389;51.578;5.456;2023-02-13T10:27:03;52.17;;;32.20;;
58621;SDS011;44389;51.578;5.456;2023-02-13T10:29:42;53.58;;;31.73;;
58621;SDS011;44389;51.578;5.456;2023-02-13T10:37:48;53.67;;;31.00;;
58621;SDS011;44389;51.578;5.456;2023-02-13T10:40:18;48.67;;;30.40;;
58621;SDS011;44389;51.578;5.456;2023-02-13T10:42:44;52.38;;;31.20;;
58621;SDS011;44389;51.578;5.456;2023-02-13T10:53:41;50.83;;;30.98;;
58621;SDS011;44389;51.578;5.456;2023-02-13T10:56:23;43.70;;;29.00;;
58621;SDS011;44389;51.578;5.456;2023-02-13T10:59:04;45.75;;;29.50;;
58621;SDS011;44389;51.578;5.456;2023-02-13T11:01:44;46.08;;;28.70;;
58621;SDS011;44389;51.578;5.456;2023-02-13T11:04:18;47.03;;;29.73;;
58621;SDS011;44389;51.578;5.456;2023-02-13T11:06:56;43.65;;;27.90;;
58621;SDS011;44389;51.578;5.456;2023-02-13T11:09:24;43.70;;;27.33;;
58621;SDS011;44389;51.578;5.456;2023-02-13T11:11:50;41.03;;;25.92;;
58621;SDS011;44389;51.578;5.456;2023-02-13T11:16:46;41.90;;;27.20;;
58621;SDS011;44389;51.578;5.456;2023-02-13T11:19:49;40.78;;;25.17;;
58621;SDS011;44389;51.578;5.456;2023-02-13T11:22:25;43.22;;;26.90;;
58621;SDS011;44389;51.578;5.456;2023-02-13T11:25:05;41.08;;;26.92;;
58621;SDS011;44389;51.578;5.456;2023-02-13T11:27:40;37.05;;;24.75;;
58621;SDS011;44389;51.578;5.456;2023-02-13T11:30:27;37.42;;;24.73;;
58621;SDS011;44389;51.578;5.456;2023-02-13T11:33:00;33.35;;;22.67;;
58621;SDS011;44389;51.578;5.456;2023-02-13T11:35:34;36.38;;;23.60;;
58621;SDS011;44389;51.578;5.456;2023-02-13T11:38:09;34.03;;;21.98;;
58621;SDS011;44389;51.578;5.456;2023-02-13T11:40:35;35.83;;;24.98;;
58621;SDS011;44389;51.578;5.456;2023-02-13T11:43:05;36.07;;;24.00;;
58621;SDS011;44389;51.578;5.456;2023-02-13T11:45:31;37.28;;;24.92;;
58621;SDS011;44389;51.578;5.456;2023-02-13T11:47:57;36.20;;;25.63;;
58621;SDS011;44389;51.578;5.456;2023-02-13T11:50:27;36.03;;;24.73;;
58621;SDS011;44389;51.578;5.456;2023-02-13T11:52:55;36.58;;;24.42;;
58621;SDS011;44389;51.578;5.456;2023-02-13T11:56:00;43.45;;;28.40;;
58621;SDS011;44389;51.578;5.456;2023-02-13T11:58:27;41.38;;;26.05;;
58621;SDS011;44389;51.578;5.456;2023-02-13T12:06:57;37.60;;;26.02;;
58621;SDS011;44389;51.578;5.456;2023-02-13T12:09:22;44.15;;;28.20;;
58621;SDS011;44389;51.578;5.456;2023-02-13T12:11:48;40.85;;;27.48;;
58621;SDS011;44389;51.578;5.456;2023-02-13T12:14:24;37.60;;;25.60;;
58621;SDS011;44389;51.578;5.456;2023-02-13T12:16:53;45.65;;;27.88;;
58621;SDS011;44389;51.578;5.456;2023-02-13T12:19:53;39.28;;;25.90;;
58621;SDS011;44389;51.578;5.456;2023-02-13T12:22:28;40.00;;;25.38;;
58621;SDS011;44389;51.578;5.456;2023-02-13T12:28:08;36.97;;;24.23;;
58621;SDS011;44389;51.578;5.456;2023-02-13T12:36:12;35.88;;;24.25;;
58621;SDS011;44389;51.578;5.456;2023-02-13T12:38:49;33.35;;;22.38;;
58621;SDS011;44389;51.578;5.456;2023-02-13T12:41:19;34.00;;;23.25;;
58621;SDS011;44389;51.578;5.456;2023-02-13T12:43:54;34.10;;;23.20;;
58621;SDS011;44389;51.578;5.456;2023-02-13T12:49:20;34.20;;;22.27;;
58621;SDS011;44389;51.578;5.456;2023-02-13T12:52:20;33.97;;;21.80;;
58621;SDS011;44389;51.578;5.456;2023-02-13T12:57:59;32.22;;;21.20;;
58621;SDS011;44389;51.578;5.456;2023-02-13T13:06:03;34.58;;;24.08;;
58621;SDS011;44389;51.578;5.456;2023-02-13T13:14:30;41.90;;;28.52;;
58621;SDS011;44389;51.578;5.456;2023-02-13T13:22:47;34.03;;;24.70;;
58621;SDS011;44389;51.578;5.456;2023-02-13T13:25:20;32.40;;;24.27;;
58621;SDS011;44389;51.578;5.456;2023-02-13T13:27:51;34.08;;;25.27;;
58621;SDS011;44389;51.578;5.456;2023-02-13T13:30:27;35.65;;;25.77;;
58621;SDS011;44389;51.578;5.456;2023-02-13T13:33:02;34.30;;;25.15;;
58621;SDS011;44389;51.578;5.456;2023-02-13T13:35:33;35.25;;;26.10;;
58621;SDS011;44389;51.578;5.456;2023-02-13T13:38:10;38.17;;;25.67;;
58621;SDS011;44389;51.578;5.456;2023-02-13T13:43:18;35.88;;;25.80;;
58621;SDS011;44389;51.578;5.456;2023-02-13T13:46:20;33.53;;;24.67;;
58621;SDS011;44389;51.578;5.456;2023-02-13T13:49:10;34.00;;;24.83;;
58621;SDS011;44389;51.578;5.456;2023-02-13T13:51:46;31.92;;;22.38;;
58621;SDS011;44389;51.578;5.456;2023-02-13T14:05:02;34.10;;;24.25;;
58621;SDS011;44389;51.578;5.456;2023-02-13T14:07:42;32.60;;;23.30;;
58621;SDS011;44389;51.578;5.456;2023-02-13T14:12:48;38.30;;;25.05;;
58621;SDS011;44389;51.578;5.456;2023-02-13T14:18:17;33.70;;;23.60;;
58621;SDS011;44389;51.578;5.456;2023-02-13T14:31:17;32.75;;;23.55;;
58621;SDS011;44389;51.578;5.456;2023-02-13T14:34:06;34.17;;;24.60;;
58621;SDS011;44389;51.578;5.456;2023-02-13T14:36:57;38.33;;;24.75;;
58621;SDS011;44389;51.578;5.456;2023-02-13T14:39:28;36.58;;;26.90;;
58621;SDS011;44389;51.578;5.456;2023-02-13T14:41:57;33.92;;;25.25;;
58621;SDS011;44389;51.578;5.456;2023-02-13T14:44:30;35.03;;;25.45;;
58621;SDS011;44389;51.578;5.456;2023-02-13T14:47:13;34.92;;;24.55;;
58621;SDS011;44389;51.578;5.456;2023-02-13T14:49:45;39.45;;;26.80;;
58621;SDS011;44389;51.578;5.456;2023-02-13T14:55:01;36.70;;;24.42;;
58621;SDS011;44389;51.578;5.456;2023-02-13T14:57:33;35.40;;;23.92;;
58621;SDS011;44389;51.578;5.456;2023-02-13T15:00:06;35.70;;;25.00;;
58621;SDS011;44389;51.578;5.456;2023-02-13T15:02:41;37.08;;;26.38;;
58621;SDS011;44389;51.578;5.456;2023-02-13T15:07:44;32.03;;;22.55;;
58621;SDS011;44389;51.578;5.456;2023-02-13T15:16:02;36.00;;;24.13;;
58621;SDS011;44389;51.578;5.456;2023-02-13T15:18:34;33.25;;;23.50;;
58621;SDS011;44389;51.578;5.456;2023-02-13T15:21:05;37.03;;;24.65;;
58621;SDS011;44389;51.578;5.456;2023-02-13T15:23:33;34.10;;;24.88;;
58621;SDS011;44389;51.578;5.456;2023-02-13T15:26:05;34.88;;;24.85;;
58621;SDS011;44389;51.578;5.456;2023-02-13T15:28:32;39.65;;;25.35;;
58621;SDS011;44389;51.578;5.456;2023-02-13T15:33:26;36.92;;;26.52;;
58621;SDS011;44389;51.578;5.456;2023-02-13T15:36:06;37.03;;;26.10;;
58621;SDS011;44389;51.578;5.456;2023-02-13T15:38:32;35.95;;;25.77;;
58621;SDS011;44389;51.578;5.456;2023-02-13T15:43:49;38.92;;;25.77;;
58621;SDS011;44389;51.578;5.456;2023-02-13T15:46:23;37.30;;;26.77;;
58621;SDS011;44389;51.578;5.456;2023-02-13T15:48:52;40.58;;;26.83;;
58621;SDS011;44389;51.578;5.456;2023-02-13T15:51:23;42.13;;;28.65;;
58621;SDS011;44389;51.578;5.456;2023-02-13T15:53:58;40.85;;;29.35;;
58621;SDS011;44389;51.578;5.456;2023-02-13T15:56:25;42.38;;;29.45;;
58621;SDS011;44389;51.578;5.456;2023-02-13T15:58:51;43.70;;;30.30;;
58621;SDS011;44389;51.578;5.456;2023-02-13T16:01:18;43.10;;;29.75;;
58621;SDS011;44389;51.578;5.456;2023-02-13T16:03:44;45.47;;;31.10;;
58621;SDS011;44389;51.578;5.456;2023-02-13T16:06:12;41.83;;;30.58;;
58621;SDS011;44389;51.578;5.456;2023-02-13T16:08:43;46.88;;;32.28;;
58621;SDS011;44389;51.578;5.456;2023-02-13T16:16:43;42.70;;;30.42;;
58621;SDS011;44389;51.578;5.456;2023-02-13T16:19:22;45.03;;;30.98;;
58621;SDS011;44389;51.578;5.456;2023-02-13T16:21:50;43.92;;;31.98;;
58621;SDS011;44389;51.578;5.456;2023-02-13T16:24:16;49.50;;;32.07;;
58621;SDS011;44389;51.578;5.456;2023-02-13T16:26:43;48.45;;;32.53;;
58621;SDS011;44389;51.578;5.456;2023-02-13T16:29:09;48.55;;;34.72;;
58621;SDS011;44389;51.578;5.456;2023-02-13T16:31:39;51.10;;;34.78;;
58621;SDS011;44389;51.578;5.456;2023-02-13T16:37:00;50.42;;;33.42;;
58621;SDS011;44389;51.578;5.456;2023-02-13T16:39:26;52.53;;;34.70;;
58621;SDS011;44389;51.578;5.456;2023-02-13T16:41:54;57.95;;;38.53;;
58621;SDS011;44389;51.578;5.456;2023-02-13T16:44:24;57.85;;;37.40;;
58621;SDS011;44389;51.578;5.456;2023-02-13T16:47:01;53.92;;;36.50;;
58621;SDS011;44389;51.578;5.456;2023-02-13T16:49:32;56.77;;;36.57;;
58621;SDS011;44389;51.578;5.456;2023-02-13T16:54:55;57.75;;;39.13;;
58621;SDS011;44389;51.578;5.456;2023-02-13T16:57:27;61.90;;;39.50;;
58621;SDS011;44389;51.578;5.456;2023-02-13T17:07:36;60.20;;;38.90;;
58621;SDS011;44389;51.578;5.456;2023-02-13T17:10:09;60.47;;;39.67;;
58621;SDS011;44389;51.578;5.456;2023-02-13T17:12:52;56.88;;;37.30;;
58621;SDS011;44389;51.578;5.456;2023-02-13T17:15:20;58.83;;;37.97;;
58621;SDS011;44389;51.578;5.456;2023-02-13T17:17:47;55.13;;;38.00;;
58621;SDS011;44389;51.578;5.456;2023-02-13T17:20:25;60.97;;;40.23;;
58621;SDS011;44389;51.578;5.456;2023-02-13T17:22:53;59.40;;;39.85;;
58621;SDS011;44389;51.578;5.456;2023-02-13T17:25:24;66.53;;;40.80;;
58621;SDS011;44389;51.578;5.456;2023-02-13T17:27:51;64.20;;;41.60;;
58621;SDS011;44389;51.578;5.456;2023-02-13T17:30:20;63.42;;;41.78;;
58621;SDS011;44389;51.578;5.456;2023-02-13T17:32:47;67.65;;;43.40;;
58621;SDS011;44389;51.578;5.456;2023-02-13T17:35:13;65.97;;;41.85;;
58621;SDS011;44389;51.578;5.456;2023-02-13T17:37:40;59.50;;;39.22;;